createdAt,value
2022-10-30T15:59:36.668Z,100660.80
2022-10-30T16:02:32.405Z,100667.09
2022-10-30T16:05:22.988Z,100658.23
2022-10-30T16:08:18.020Z,100650.02
2022-10-30T16:11:24.907Z,100640.88
2022-10-30T16:14:16.615Z,100643.59
2022-10-30T16:17:43.591Z,100658.20
2022-10-30T16:21:04.145Z,100659.15
2022-10-30T16:24:17.362Z,100654.80
2022-10-30T16:27:24.003Z,100653.48
2022-10-30T16:30:33.056Z,100661.07
2022-10-30T16:33:22.884Z,100664.35
2022-10-30T16:36:32.731Z,100664.94
2022-10-30T16:39:32.018Z,100668.51
2022-10-30T16:42:16.711Z,100666.23
2022-10-30T16:45:11.630Z,100665.88
2022-10-30T16:48:27.768Z,100666.22
2022-10-30T16:51:39.074Z,100661.54
2022-10-30T16:54:34.149Z,100656.50
2022-10-30T16:57:48.787Z,100656.30
2022-10-30T17:01:04.280Z,100661.83
2022-10-30T17:04:01.494Z,100667.55
2022-10-30T17:07:02.708Z,100674.69
2022-10-30T17:10:14.752Z,100677.18
2022-10-30T17:13:32.146Z,100672.73
2022-10-30T17:16:32.872Z,100676.77
2022-10-30T17:20:31.107Z,100678.20
2022-10-30T17:23:51.743Z,100679.05
2022-10-30T17:26:29.523Z,100678.64
2022-10-30T17:29:30.501Z,100677.98
2022-10-30T17:32:49.211Z,100683.55
2022-10-30T17:35:36.541Z,100681.92
2022-10-30T17:38:29.853Z,100681.70
2022-10-30T17:41:06.954Z,100680.77
2022-10-30T17:44:03.120Z,100682.52
2022-10-30T17:46:54.889Z,100686.02
2022-10-30T17:50:12.015Z,100681.18
2022-10-30T17:53:02.801Z,100679.02
2022-10-30T17:56:14.104Z,100679.91
2022-10-30T17:59:04.461Z,100677.54
2022-10-30T18:01:44.321Z,100678.04
2022-10-30T18:04:28.591Z,100677.58
2022-10-30T18:08:02.419Z,100671.55
2022-10-30T18:10:56.954Z,100664.88
2022-10-30T18:13:45.335Z,100670.01
2022-10-30T18:16:54.598Z,100672.45
2022-10-30T18:19:45.104Z,100676.53
2022-10-30T18:22:55.638Z,100674.43
2022-10-30T18:26:19.342Z,100675.81
2022-10-30T18:30:20.048Z,100675.48
2022-10-30T18:33:28.072Z,100677.60
2022-10-30T18:36:32.666Z,100678.18
2022-10-30T18:43:22.504Z,100677.62
2022-10-30T18:46:35.215Z,100678.38
2022-10-30T19:06:58.518Z,100669.63
2022-10-30T19:10:02.192Z,100675.77
2022-10-30T19:13:13.674Z,100677.92
2022-10-30T19:16:00.373Z,100678.63
2022-10-30T19:19:20.465Z,100679.23
2022-10-30T19:21:53.607Z,100678.69
2022-10-30T19:25:03.348Z,100679.39
2022-10-30T19:28:12.729Z,100681.15
2022-10-30T19:31:02.957Z,100678.85
2022-10-30T19:34:00.427Z,100678.62
2022-10-30T19:36:40.789Z,100679.02
2022-10-30T19:39:56.540Z,100676.07
2022-10-30T19:43:02.780Z,100676.55
2022-10-30T19:45:57.249Z,100673.81
2022-10-30T19:48:56.122Z,100674.59
2022-10-30T19:52:11.797Z,100678.77
2022-10-30T19:55:27.478Z,100679.21
2022-10-30T19:58:48.933Z,100675.63
2022-10-30T20:01:46.759Z,100679.77
2022-10-30T20:04:54.409Z,100683.13
2022-10-30T20:08:48.364Z,100691.21
2022-10-30T20:12:13.082Z,100691.04
2022-10-30T20:15:22.130Z,100692.98
2022-10-30T20:18:18.866Z,100697.06
2022-10-30T20:21:36.692Z,100696.33
2022-10-30T20:24:53.473Z,100693.59
2022-10-30T20:28:06.787Z,100692.89
2022-10-30T20:31:14.257Z,100690.39
2022-10-30T20:34:22.309Z,100695.33
2022-10-30T20:37:01.277Z,100703.06
2022-10-30T20:39:43.297Z,100707.96
2022-10-30T20:42:45.612Z,100702.98
2022-10-30T20:45:41.928Z,100702.14
2022-10-30T20:48:33.892Z,100703.98
2022-10-30T20:51:27.573Z,100710.09
2022-10-30T20:54:29.271Z,100713.25
2022-10-30T20:57:07.130Z,100708.33
2022-10-30T21:00:09.787Z,100708.94
2022-10-30T21:03:20.771Z,100709.37
2022-10-30T21:06:15.874Z,100707.89
2022-10-30T21:09:24.440Z,100706.77
2022-10-30T21:12:02.446Z,100704.69
2022-10-30T21:15:14.745Z,100702.68
2022-10-30T21:18:20.461Z,100699.36
2022-10-30T21:21:24.466Z,100700.54
2022-10-30T21:24:18.891Z,100697.02
2022-10-30T21:27:11.222Z,100699.16
2022-10-30T21:30:11.253Z,100696.31
2022-10-30T21:33:20.643Z,100693.29
2022-10-30T21:36:37.992Z,100694.70
2022-10-30T21:39:43.655Z,100691.95
2022-10-30T21:43:03.053Z,100697.64
2022-10-30T21:46:25.438Z,100700.02
2022-10-30T21:49:33.137Z,100703.81
2022-10-30T21:52:47.149Z,100702.94
2022-10-30T21:55:28.960Z,100703.81
2022-10-30T21:58:29.718Z,100706.52
2022-10-30T22:01:18.507Z,100706.77
2022-10-30T22:04:51.317Z,100704.48
2022-10-30T22:07:50.596Z,100705.61
2022-10-30T22:35:52.387Z,100685.98
2022-10-30T22:43:34.586Z,100681.81
2022-10-30T22:46:48.667Z,100681.15
2022-10-30T22:50:19.857Z,100682.32
2022-10-30T22:53:45.966Z,100684.33
2022-10-30T22:57:43.926Z,100679.52
2022-10-30T23:00:47.746Z,100678.63
2022-10-30T23:06:59.201Z,100679.29
2022-10-30T23:13:37.078Z,100679.85
2022-10-30T23:17:18.819Z,100682.38
2022-10-30T23:20:35.574Z,100688.20
2022-10-30T23:23:33.783Z,100688.32
2022-10-30T23:26:39.166Z,100687.94
2022-10-30T23:29:31.249Z,100688.33
2022-10-30T23:32:15.027Z,100688.64
2022-10-30T23:35:02.635Z,100686.15
2022-10-30T23:37:35.779Z,100689.16
2022-10-30T23:40:17.935Z,100692.95
2022-10-30T23:43:01.262Z,100693.13
2022-10-30T23:45:41.642Z,100694.39
2022-10-30T23:48:14.697Z,100697.78
2022-10-30T23:50:55.924Z,100698.83
2022-10-30T23:53:45.696Z,100702.63
2022-10-30T23:56:33.913Z,100701.36
2022-10-30T23:59:11.628Z,100697.39
